sensor_id;sensor_type;location;lat;lon;timestamp;temperature;humidity
12426;DHT22;6277;49.824;9.562;2023-08-12T00:00:09;20.70;61.20
12426;DHT22;6277;49.824;9.562;2023-08-12T00:02:41;20.70;61.60
12426;DHT22;6277;49.824;9.562;2023-08-12T00:05:08;20.70;61.80
12426;DHT22;6277;49.824;9.562;2023-08-12T00:07:34;20.70;61.30
12426;DHT22;6277;49.824;9.562;2023-08-12T00:10:01;20.60;61.40
12426;DHT22;6277;49.824;9.562;2023-08-12T00:12:28;20.60;61.70
12426;DHT22;6277;49.824;9.562;2023-08-12T00:14:54;20.60;61.70
12426;DHT22;6277;49.824;9.562;2023-08-12T00:17:20;20.50;61.80
12426;DHT22;6277;49.824;9.562;2023-08-12T00:19:46;20.50;62.00
12426;DHT22;6277;49.824;9.562;2023-08-12T00:22:12;20.50;62.20
12426;DHT22;6277;49.824;9.562;2023-08-12T00:24:38;20.50;62.30
12426;DHT22;6277;49.824;9.562;2023-08-12T00:27:05;20.50;62.30
12426;DHT22;6277;49.824;9.562;2023-08-12T00:29:32;20.50;62.30
12426;DHT22;6277;49.824;9.562;2023-08-12T00:31:57;20.50;62.50
12426;DHT22;6277;49.824;9.562;2023-08-12T00:34:23;20.50;62.50
12426;DHT22;6277;49.824;9.562;2023-08-12T00:36:48;20.50;62.60
12426;DHT22;6277;49.824;9.562;2023-08-12T00:39:14;20.50;62.60
12426;DHT22;6277;49.824;9.562;2023-08-12T00:41:39;20.50;62.70
12426;DHT22;6277;49.824;9.562;2023-08-12T00:44:05;20.50;62.90
12426;DHT22;6277;49.824;9.562;2023-08-12T00:46:31;20.40;63.10
12426;DHT22;6277;49.824;9.562;2023-08-12T00:48:57;20.50;63.20
12426;DHT22;6277;49.824;9.562;2023-08-12T00:51:22;20.50;64.00
12426;DHT22;6277;49.824;9.562;2023-08-12T00:53:48;20.50;63.20
12426;DHT22;6277;49.824;9.562;2023-08-12T00:56:15;20.40;63.30
12426;DHT22;6277;49.824;9.562;2023-08-12T00:58:41;20.40;63.40
12426;DHT22;6277;49.824;9.562;2023-08-12T01:01:08;20.40;63.40
12426;DHT22;6277;49.824;9.562;2023-08-12T01:03:33;20.40;64.00
12426;DHT22;6277;49.824;9.562;2023-08-12T01:06:00;20.40;63.50
12426;DHT22;6277;49.824;9.562;2023-08-12T01:08:30;20.40;63.50
12426;DHT22;6277;49.824;9.562;2023-08-12T01:11:06;20.40;63.80
12426;DHT22;6277;49.824;9.562;2023-08-12T01:16:20;20.30;64.40
12426;DHT22;6277;49.824;9.562;2023-08-12T01:18:47;20.20;63.80
12426;DHT22;6277;49.824;9.562;2023-08-12T01:21:16;20.20;63.90
12426;DHT22;6277;49.824;9.562;2023-08-12T01:23:43;20.20;64.20
12426;DHT22;6277;49.824;9.562;2023-08-12T01:26:09;20.20;64.20
12426;DHT22;6277;49.824;9.562;2023-08-12T01:28:35;20.20;64.20
12426;DHT22;6277;49.824;9.562;2023-08-12T01:31:08;20.10;64.10
12426;DHT22;6277;49.824;9.562;2023-08-12T01:33:48;20.20;64.80
12426;DHT22;6277;49.824;9.562;2023-08-12T01:36:18;20.10;65.00
12426;DHT22;6277;49.824;9.562;2023-08-12T01:38:44;20.10;64.90
12426;DHT22;6277;49.824;9.562;2023-08-12T01:41:13;20.10;64.60
12426;DHT22;6277;49.824;9.562;2023-08-12T01:43:40;20.10;64.80
12426;DHT22;6277;49.824;9.562;2023-08-12T01:46:06;20.00;64.80
12426;DHT22;6277;49.824;9.562;2023-08-12T01:48:32;20.00;64.80
12426;DHT22;6277;49.824;9.562;2023-08-12T01:50:57;20.00;65.00
12426;DHT22;6277;49.824;9.562;2023-08-12T01:53:23;20.10;65.20
12426;DHT22;6277;49.824;9.562;2023-08-12T01:55:50;20.10;65.40
12426;DHT22;6277;49.824;9.562;2023-08-12T01:58:16;20.10;65.40
12426;DHT22;6277;49.824;9.562;2023-08-12T02:00:41;20.10;65.40
12426;DHT22;6277;49.824;9.562;2023-08-12T02:03:07;20.10;65.50
12426;DHT22;6277;49.824;9.562;2023-08-12T02:05:33;20.20;65.70
12426;DHT22;6277;49.824;9.562;2023-08-12T02:07:59;20.20;65.80
12426;DHT22;6277;49.824;9.562;2023-08-12T02:10:24;20.20;65.80
12426;DHT22;6277;49.824;9.562;2023-08-12T02:12:50;20.20;65.80
12426;DHT22;6277;49.824;9.562;2023-08-12T02:15:16;20.30;65.90
12426;DHT22;6277;49.824;9.562;2023-08-12T02:17:41;20.30;66.00
12426;DHT22;6277;49.824;9.562;2023-08-12T02:20:07;20.30;66.00
12426;DHT22;6277;49.824;9.562;2023-08-12T02:22:33;20.40;66.00
12426;DHT22;6277;49.824;9.562;2023-08-12T02:24:58;20.30;66.00
12426;DHT22;6277;49.824;9.562;2023-08-12T02:27:25;20.40;66.10
12426;DHT22;6277;49.824;9.562;2023-08-12T02:29:50;20.40;66.10
12426;DHT22;6277;49.824;9.562;2023-08-12T02:32:16;20.40;66.20
12426;DHT22;6277;49.824;9.562;2023-08-12T02:34:42;20.40;66.20
12426;DHT22;6277;49.824;9.562;2023-08-12T02:37:07;20.40;66.20
12426;DHT22;6277;49.824;9.562;2023-08-12T02:39:33;20.40;66.30
12426;DHT22;6277;49.824;9.562;2023-08-12T02:41:58;20.50;66.60
12426;DHT22;6277;49.824;9.562;2023-08-12T02:44:24;20.50;66.60
12426;DHT22;6277;49.824;9.562;2023-08-12T02:46:49;20.50;66.60
12426;DHT22;6277;49.824;9.562;2023-08-12T02:49:15;20.60;66.70
12426;DHT22;6277;49.824;9.562;2023-08-12T02:51:40;20.60;66.70
12426;DHT22;6277;49.824;9.562;2023-08-12T02:54:06;20.60;66.70
12426;DHT22;6277;49.824;9.562;2023-08-12T02:56:31;20.70;66.70
12426;DHT22;6277;49.824;9.562;2023-08-12T02:58:57;20.70;66.70
12426;DHT22;6277;49.824;9.562;2023-08-12T03:01:23;20.70;66.70
12426;DHT22;6277;49.824;9.562;2023-08-12T03:03:48;20.70;66.70
12426;DHT22;6277;49.824;9.562;2023-08-12T03:06:14;20.80;67.50
12426;DHT22;6277;49.824;9.562;2023-08-12T03:08:39;20.80;67.00
12426;DHT22;6277;49.824;9.562;2023-08-12T03:11:05;20.80;67.10
12426;DHT22;6277;49.824;9.562;2023-08-12T03:13:30;20.80;67.20
12426;DHT22;6277;49.824;9.562;2023-08-12T03:15:56;20.90;67.40
12426;DHT22;6277;49.824;9.562;2023-08-12T03:18:22;20.90;67.40
12426;DHT22;6277;49.824;9.562;2023-08-12T03:20:47;20.90;67.40
12426;DHT22;6277;49.824;9.562;2023-08-12T03:23:13;20.90;67.30
12426;DHT22;6277;49.824;9.562;2023-08-12T03:25:38;21.00;67.40
12426;DHT22;6277;49.824;9.562;2023-08-12T03:28:04;21.00;67.30
12426;DHT22;6277;49.824;9.562;2023-08-12T03:30:29;21.00;67.40
12426;DHT22;6277;49.824;9.562;2023-08-12T03:32:55;21.00;67.60
12426;DHT22;6277;49.824;9.562;2023-08-12T03:35:21;21.00;67.60
12426;DHT22;6277;49.824;9.562;2023-08-12T03:37:46;21.00;67.60
12426;DHT22;6277;49.824;9.562;2023-08-12T03:40:12;21.10;67.70
12426;DHT22;6277;49.824;9.562;2023-08-12T03:42:37;21.00;67.60
12426;DHT22;6277;49.824;9.562;2023-08-12T03:45:03;21.00;67.60
12426;DHT22;6277;49.824;9.562;2023-08-12T03:47:29;21.00;67.60
12426;DHT22;6277;49.824;9.562;2023-08-12T03:49:55;21.00;67.80
12426;DHT22;6277;49.824;9.562;2023-08-12T03:52:20;21.00;67.80
12426;DHT22;6277;49.824;9.562;2023-08-12T03:54:46;21.00;67.70
12426;DHT22;6277;49.824;9.562;2023-08-12T03:57:11;21.00;67.70
12426;DHT22;6277;49.824;9.562;2023-08-12T03:59:37;21.00;67.80
12426;DHT22;6277;49.824;9.562;2023-08-12T04:02:03;21.00;67.80
12426;DHT22;6277;49.824;9.562;2023-08-12T04:04:29;20.90;67.80
12426;DHT22;6277;49.824;9.562;2023-08-12T04:06:55;20.90;67.90
12426;DHT22;6277;49.824;9.562;2023-08-12T04:09:20;20.90;67.90
12426;DHT22;6277;49.824;9.562;2023-08-12T04:11:47;20.90;68.00
12426;DHT22;6277;49.824;9.562;2023-08-12T04:14:13;20.90;68.10
12426;DHT22;6277;49.824;9.562;2023-08-12T04:16:39;20.90;68.30
12426;DHT22;6277;49.824;9.562;2023-08-12T04:19:05;20.90;68.40
12426;DHT22;6277;49.824;9.562;2023-08-12T04:21:30;20.90;68.40
12426;DHT22;6277;49.824;9.562;2023-08-12T04:23:56;20.90;68.40
12426;DHT22;6277;49.824;9.562;2023-08-12T04:26:21;20.90;68.50
12426;DHT22;6277;49.824;9.562;2023-08-12T04:28:47;20.90;68.60
12426;DHT22;6277;49.824;9.562;2023-08-12T04:31:13;20.90;69.30
12426;DHT22;6277;49.824;9.562;2023-08-12T04:33:38;20.90;68.70
12426;DHT22;6277;49.824;9.562;2023-08-12T04:36:04;20.90;68.70
12426;DHT22;6277;49.824;9.562;2023-08-12T04:38:30;21.00;68.90
12426;DHT22;6277;49.824;9.562;2023-08-12T04:40:57;20.90;68.90
12426;DHT22;6277;49.824;9.562;2023-08-12T04:43:22;21.00;68.90
12426;DHT22;6277;49.824;9.562;2023-08-12T04:45:48;21.00;69.20
12426;DHT22;6277;49.824;9.562;2023-08-12T04:48:14;21.00;69.40
12426;DHT22;6277;49.824;9.562;2023-08-12T04:50:41;21.00;69.60
12426;DHT22;6277;49.824;9.562;2023-08-12T04:53:07;21.00;69.80
12426;DHT22;6277;49.824;9.562;2023-08-12T04:55:36;21.00;70.40
12426;DHT22;6277;49.824;9.562;2023-08-12T04:58:02;21.00;69.90
12426;DHT22;6277;49.824;9.562;2023-08-12T05:00:28;21.10;70.00
12426;DHT22;6277;49.824;9.562;2023-08-12T05:02:54;21.10;70.00
12426;DHT22;6277;49.824;9.562;2023-08-12T05:05:19;21.20;70.20
12426;DHT22;6277;49.824;9.562;2023-08-12T05:07:45;21.30;70.20
12426;DHT22;6277;49.824;9.562;2023-08-12T05:10:17;21.30;70.10
12426;DHT22;6277;49.824;9.562;2023-08-12T05:12:43;21.30;70.00
12426;DHT22;6277;49.824;9.562;2023-08-12T05:15:12;21.30;69.90
12426;DHT22;6277;49.824;9.562;2023-08-12T05:17:38;21.30;70.00
12426;DHT22;6277;49.824;9.562;2023-08-12T05:20:04;21.30;69.90
12426;DHT22;6277;49.824;9.562;2023-08-12T05:22:29;21.30;69.90
12426;DHT22;6277;49.824;9.562;2023-08-12T05:24:55;21.40;70.00
12426;DHT22;6277;49.824;9.562;2023-08-12T05:27:21;21.40;70.00
12426;DHT22;6277;49.824;9.562;2023-08-12T05:29:46;21.40;70.00
12426;DHT22;6277;49.824;9.562;2023-08-12T05:32:12;21.50;70.00
12426;DHT22;6277;49.824;9.562;2023-08-12T05:34:37;21.40;69.90
12426;DHT22;6277;49.824;9.562;2023-08-12T05:37:03;21.40;69.90
12426;DHT22;6277;49.824;9.562;2023-08-12T05:39:29;21.50;70.00
12426;DHT22;6277;49.824;9.562;2023-08-12T05:41:54;21.50;70.00
12426;DHT22;6277;49.824;9.562;2023-08-12T05:44:20;21.50;70.10
12426;DHT22;6277;49.824;9.562;2023-08-12T05:46:45;21.60;70.20
12426;DHT22;6277;49.824;9.562;2023-08-12T05:49:11;21.50;70.20
12426;DHT22;6277;49.824;9.562;2023-08-12T05:51:37;21.60;70.30
12426;DHT22;6277;49.824;9.562;2023-08-12T05:54:04;21.60;70.40
12426;DHT22;6277;49.824;9.562;2023-08-12T05:56:29;21.70;70.60
12426;DHT22;6277;49.824;9.562;2023-08-12T05:58:55;21.80;70.80
